createdAt,value
2019-05-19T00:02:00.559Z,2.47
2019-05-19T00:04:32.833Z,1.87
2019-05-19T00:07:03.665Z,1.47
2019-05-19T00:09:34.503Z,1.60
2019-05-19T00:12:05.230Z,1.50
2019-05-19T00:14:37.039Z,1.43
2019-05-19T00:17:07.694Z,1.57
2019-05-19T00:19:38.470Z,2.17
2019-05-19T00:22:09.617Z,1.67
2019-05-19T00:24:40.205Z,1.57
2019-05-19T00:27:11.353Z,1.90
2019-05-19T00:29:42.470Z,2.60
2019-05-19T00:32:13.297Z,1.67
2019-05-19T00:34:44.411Z,1.73
2019-05-19T00:37:15.051Z,1.93
2019-05-19T00:39:45.745Z,1.73
2019-05-19T00:42:16.525Z,2.90
2019-05-19T00:44:47.457Z,1.50
2019-05-19T00:47:18.155Z,1.77
2019-05-19T00:49:48.886Z,2.07
2019-05-19T00:52:19.717Z,1.63
2019-05-19T00:54:50.506Z,1.60
2019-05-19T00:57:21.837Z,1.37
2019-05-19T00:59:53.461Z,1.80
2019-05-19T01:02:24.305Z,2.40
2019-05-19T01:04:55.387Z,1.60
2019-05-19T01:07:26.019Z,2.30
2019-05-19T01:09:56.780Z,1.50
2019-05-19T01:12:27.573Z,1.43
2019-05-19T01:14:58.200Z,2.47
2019-05-19T01:17:28.898Z,1.77
2019-05-19T01:19:59.850Z,1.80
2019-05-19T01:22:30.994Z,1.70
2019-05-19T01:25:01.793Z,2.57
2019-05-19T01:27:32.598Z,2.00
2019-05-19T01:30:03.454Z,2.07
2019-05-19T01:32:34.294Z,1.57
2019-05-19T01:35:05.923Z,4.87
2019-05-19T01:37:36.879Z,1.70
2019-05-19T01:40:08.638Z,1.70
2019-05-19T01:42:39.470Z,2.00
2019-05-19T01:45:10.642Z,3.00
2019-05-19T01:47:41.459Z,2.37
2019-05-19T01:50:17.874Z,2.27
2019-05-19T01:52:44.989Z,1.90
2019-05-19T01:55:15.919Z,1.83
2019-05-19T01:57:46.832Z,1.77
2019-05-19T02:00:18.796Z,1.73
2019-05-19T02:02:49.590Z,2.00
2019-05-19T02:05:20.605Z,2.53
2019-05-19T02:07:51.904Z,1.60
2019-05-19T02:10:22.697Z,1.60
2019-05-19T02:12:53.517Z,2.37
2019-05-19T02:15:24.273Z,1.70
2019-05-19T02:17:55.181Z,2.97
2019-05-19T02:20:33.146Z,1.80
2019-05-19T02:22:58.434Z,2.80
2019-05-19T02:25:29.233Z,1.83
2019-05-19T02:27:59.864Z,1.90
2019-05-19T02:30:30.610Z,1.73
2019-05-19T02:33:01.463Z,1.57
2019-05-19T02:35:31.989Z,2.17
2019-05-19T02:38:02.854Z,3.07
2019-05-19T02:40:38.210Z,2.00
2019-05-19T02:43:10.689Z,1.70
2019-05-19T02:45:42.672Z,1.73
2019-05-19T02:48:15.266Z,2.50
2019-05-19T02:50:52.219Z,3.17
2019-05-19T02:53:21.023Z,2.73
2019-05-19T02:55:52.896Z,2.80
2019-05-19T02:58:23.910Z,3.23
2019-05-19T03:00:54.782Z,2.50
2019-05-19T03:03:25.430Z,1.77
2019-05-19T03:05:56.147Z,3.73
2019-05-19T03:08:26.798Z,3.97
2019-05-19T03:10:57.563Z,1.80
2019-05-19T03:13:28.323Z,3.30
2019-05-19T03:15:59.206Z,3.20
2019-05-19T03:18:30.334Z,2.73
2019-05-19T03:21:10.511Z,3.37
2019-05-19T03:23:33.550Z,2.40
2019-05-19T03:26:04.152Z,3.37
2019-05-19T03:28:34.698Z,2.40
2019-05-19T03:31:24.816Z,2.53
2019-05-19T03:33:55.482Z,2.57
2019-05-19T03:36:25.957Z,3.40
2019-05-19T03:38:56.701Z,2.50
2019-05-19T03:41:27.542Z,3.97
2019-05-19T03:43:58.380Z,2.43
2019-05-19T03:46:29.245Z,2.17
2019-05-19T03:48:59.810Z,3.83
2019-05-19T03:51:31.923Z,2.43
2019-05-19T03:54:02.770Z,3.00
2019-05-19T03:56:33.483Z,3.13
2019-05-19T03:59:04.386Z,2.90
2019-05-19T04:01:34.954Z,3.87
2019-05-19T04:04:06.613Z,3.47
2019-05-19T04:06:37.444Z,3.13
2019-05-19T04:09:09.258Z,3.43
2019-05-19T04:11:40.037Z,2.27
2019-05-19T04:14:10.983Z,5.00
2019-05-19T04:16:41.738Z,2.60
2019-05-19T04:19:12.607Z,4.03
2019-05-19T04:21:48.979Z,3.90
2019-05-19T04:24:16.068Z,3.53
2019-05-19T04:26:46.912Z,2.60
2019-05-19T04:29:17.760Z,3.37
2019-05-19T04:31:48.341Z,2.80
2019-05-19T04:34:20.079Z,2.80
2019-05-19T04:36:50.874Z,3.10
2019-05-19T04:39:21.707Z,2.90
2019-05-19T04:41:52.549Z,2.70
2019-05-19T04:44:25.525Z,3.30
2019-05-19T04:46:56.362Z,2.83
2019-05-19T04:49:27.238Z,3.20
2019-05-19T04:52:06.535Z,3.83
2019-05-19T04:54:30.118Z,3.20
2019-05-19T04:57:00.859Z,5.00
2019-05-19T04:59:31.476Z,4.27
2019-05-19T05:02:02.317Z,4.87
2019-05-19T05:04:33.166Z,3.40
2019-05-19T05:07:04.734Z,4.47
2019-05-19T05:09:35.372Z,4.93
2019-05-19T05:12:06.049Z,5.67
2019-05-19T05:14:36.803Z,3.53
2019-05-19T05:17:07.555Z,3.47
2019-05-19T05:19:38.294Z,5.23
2019-05-19T05:22:21.203Z,3.67
2019-05-19T05:24:41.378Z,4.50
2019-05-19T05:27:12.047Z,3.73
2019-05-19T05:29:42.753Z,3.30
2019-05-19T05:32:13.405Z,5.60
2019-05-19T05:34:44.433Z,4.03
2019-05-19T05:37:15.257Z,3.63
2019-05-19T05:39:45.893Z,3.40
2019-05-19T05:42:16.947Z,3.53
2019-05-19T05:44:47.760Z,4.93
2019-05-19T05:47:18.612Z,3.83
2019-05-19T05:49:50.312Z,3.87
2019-05-19T05:52:21.209Z,3.90
2019-05-19T05:54:52.106Z,5.40
2019-05-19T05:57:22.647Z,3.50
2019-05-19T05:59:53.238Z,3.63
2019-05-19T06:02:23.954Z,5.57
2019-05-19T06:04:54.812Z,4.63
2019-05-19T06:07:25.629Z,4.30
2019-05-19T06:09:56.538Z,4.33
2019-05-19T06:12:27.287Z,4.07
2019-05-19T06:14:57.910Z,4.27
2019-05-19T06:17:29.895Z,3.80
2019-05-19T06:20:00.746Z,5.47
2019-05-19T06:22:31.575Z,4.87
2019-05-19T06:25:02.230Z,3.80
2019-05-19T06:27:33.299Z,4.30
2019-05-19T06:30:04.278Z,4.23
2019-05-19T06:32:42.890Z,5.03
2019-05-19T06:35:13.944Z,4.00
2019-05-19T06:37:44.591Z,3.73
2019-05-19T06:40:15.767Z,4.30
2019-05-19T06:42:46.548Z,5.00
2019-05-19T06:45:17.485Z,4.80
2019-05-19T06:47:48.154Z,4.23
2019-05-19T06:50:18.974Z,4.23
2019-05-19T06:52:49.909Z,4.87
2019-05-19T06:55:21.061Z,4.80
2019-05-19T06:57:51.672Z,5.60
2019-05-19T07:00:22.328Z,5.13
2019-05-19T07:02:53.120Z,4.63
2019-05-19T07:05:23.785Z,4.67
2019-05-19T07:07:54.382Z,5.57
2019-05-19T07:10:24.927Z,5.10
2019-05-19T07:12:55.677Z,4.73
2019-05-19T07:15:26.319Z,4.70
2019-05-19T07:17:57.084Z,4.80
2019-05-19T07:20:27.883Z,4.47
2019-05-19T07:22:58.534Z,4.17
2019-05-19T07:25:29.102Z,4.73
2019-05-19T07:27:59.552Z,4.83
2019-05-19T07:30:30.497Z,4.63
2019-05-19T07:33:01.007Z,4.23
2019-05-19T07:35:31.685Z,5.77
2019-05-19T07:38:02.561Z,4.30
2019-05-19T07:40:33.352Z,4.60
2019-05-19T07:43:04.197Z,6.90
2019-05-19T07:45:35.034Z,4.33
2019-05-19T07:48:05.907Z,4.27
2019-05-19T07:50:38.161Z,4.60
2019-05-19T07:53:10.013Z,5.47
2019-05-19T07:55:40.871Z,4.20
2019-05-19T07:58:11.444Z,4.17
2019-05-19T08:00:41.983Z,4.00
2019-05-19T08:03:12.734Z,4.17
2019-05-19T08:05:43.575Z,4.47
2019-05-19T08:08:14.213Z,3.80
2019-05-19T08:10:45.234Z,3.97
2019-05-19T08:13:16.093Z,4.30
2019-05-19T08:15:46.917Z,4.40
2019-05-19T08:18:17.766Z,5.17
2019-05-19T08:20:48.366Z,4.57
2019-05-19T08:23:18.951Z,4.37
2019-05-19T08:25:49.702Z,4.70
2019-05-19T08:28:20.482Z,4.23
2019-05-19T08:30:51.119Z,4.90
2019-05-19T08:33:21.896Z,4.80
2019-05-19T08:35:52.478Z,4.87
2019-05-19T08:38:23.227Z,4.33
2019-05-19T08:40:54.092Z,5.00
2019-05-19T08:43:24.941Z,4.40
2019-05-19T08:45:55.524Z,4.40
2019-05-19T08:48:26.045Z,4.30
2019-05-19T08:50:57.113Z,5.43
2019-05-19T08:53:27.793Z,4.37
2019-05-19T08:55:58.299Z,5.97
2019-05-19T08:58:29.728Z,4.90
2019-05-19T09:01:00.225Z,5.47
2019-05-19T09:03:31.015Z,5.70
2019-05-19T09:06:01.875Z,4.37
2019-05-19T09:08:32.683Z,4.80
2019-05-19T09:11:03.503Z,4.77
2019-05-19T09:13:34.331Z,4.20
2019-05-19T09:16:05.242Z,4.93
2019-05-19T09:18:36.316Z,5.10
2019-05-19T09:21:07.159Z,5.60
2019-05-19T09:23:37.999Z,5.20
2019-05-19T09:26:08.830Z,4.93
2019-05-19T09:28:39.723Z,5.27
2019-05-19T09:31:10.505Z,5.03
2019-05-19T09:33:41.410Z,5.40
2019-05-19T09:36:13.713Z,4.60
2019-05-19T09:38:44.361Z,5.87
2019-05-19T09:41:15.083Z,5.07
2019-05-19T09:43:45.933Z,4.50
2019-05-19T09:46:16.985Z,6.07
2019-05-19T09:48:49.385Z,5.27
2019-05-19T09:51:20.048Z,5.03
2019-05-19T09:53:50.583Z,4.93
2019-05-19T09:56:21.191Z,5.30
2019-05-19T09:58:51.878Z,5.20
2019-05-19T10:01:22.731Z,5.23
2019-05-19T10:03:53.617Z,5.20
2019-05-19T10:06:25.438Z,5.70
2019-05-19T10:08:59.102Z,5.33
2019-05-19T10:12:05.771Z,5.53
2019-05-19T10:14:36.661Z,5.90
2019-05-19T10:17:07.677Z,5.43
2019-05-19T10:19:38.429Z,5.63
2019-05-19T10:22:09.297Z,5.23
2019-05-19T10:24:40.217Z,5.47
2019-05-19T10:27:10.821Z,5.67
2019-05-19T10:29:41.597Z,5.93
2019-05-19T10:32:12.281Z,7.40
2019-05-19T10:34:42.954Z,5.70
2019-05-19T10:37:13.568Z,5.90
2019-05-19T10:39:44.300Z,5.53
2019-05-19T10:42:15.494Z,5.30
2019-05-19T10:44:46.402Z,6.40
2019-05-19T10:47:17.205Z,6.10
2019-05-19T10:49:48.849Z,5.87
2019-05-19T10:52:19.846Z,5.87
2019-05-19T10:54:50.321Z,6.23
2019-05-19T10:57:21.089Z,5.53
2019-05-19T10:59:53.008Z,5.47
2019-05-19T11:02:23.474Z,5.90
2019-05-19T11:04:54.544Z,5.70
2019-05-19T11:07:25.374Z,6.00
2019-05-19T11:09:55.962Z,6.50
2019-05-19T11:12:26.534Z,5.97
2019-05-19T11:14:57.277Z,6.03
2019-05-19T11:17:28.095Z,6.50
2019-05-19T11:19:58.693Z,7.17
2019-05-19T11:22:29.482Z,7.30
2019-05-19T11:25:00.373Z,8.77
2019-05-19T11:27:31.127Z,6.27
2019-05-19T11:30:01.720Z,6.70
2019-05-19T11:32:32.494Z,7.00
2019-05-19T11:35:03.334Z,6.73
2019-05-19T11:37:34.523Z,7.87
2019-05-19T11:40:05.106Z,7.10
2019-05-19T11:42:36.606Z,7.77
2019-05-19T11:45:08.429Z,7.17
2019-05-19T11:47:39.353Z,6.87
2019-05-19T11:50:10.355Z,7.30
2019-05-19T11:52:40.873Z,7.03
2019-05-19T11:55:12.039Z,7.13
2019-05-19T11:57:42.481Z,7.23
2019-05-19T12:00:13.809Z,7.23
2019-05-19T12:02:44.495Z,7.37
2019-05-19T12:05:15.435Z,7.57
2019-05-19T12:07:46.450Z,7.33
2019-05-19T12:10:17.045Z,7.57
2019-05-19T12:12:47.492Z,6.97
2019-05-19T12:15:18.755Z,7.60
2019-05-19T12:17:49.473Z,6.87
2019-05-19T12:20:20.239Z,8.10
2019-05-19T12:22:50.881Z,7.33
2019-05-19T12:25:21.597Z,6.53
2019-05-19T12:27:52.454Z,7.20
2019-05-19T12:30:23.266Z,7.33
2019-05-19T12:32:54.105Z,7.50
2019-05-19T12:35:24.944Z,6.90
2019-05-19T12:37:55.822Z,7.37
2019-05-19T12:40:26.391Z,7.70
2019-05-19T12:42:57.163Z,6.80
2019-05-19T12:45:29.904Z,6.67
2019-05-19T12:48:01.049Z,7.03
2019-05-19T12:50:31.809Z,7.33
2019-05-19T12:53:02.735Z,7.53
2019-05-19T12:55:33.296Z,7.50
2019-05-19T12:58:03.786Z,7.60
2019-05-19T13:00:34.337Z,7.13
2019-05-19T13:03:05.160Z,6.90
2019-05-19T13:05:35.910Z,7.60
2019-05-19T13:08:06.569Z,7.57
2019-05-19T13:10:37.270Z,7.50
2019-05-19T13:13:08.121Z,7.43
2019-05-19T13:15:38.649Z,7.57
2019-05-19T13:18:09.512Z,7.27
2019-05-19T13:20:40.925Z,6.93
2019-05-19T13:23:11.826Z,6.87
2019-05-19T13:25:42.614Z,6.70
2019-05-19T13:28:13.488Z,6.80
2019-05-19T13:30:44.613Z,7.80
2019-05-19T13:33:15.748Z,7.27
2019-05-19T13:35:46.578Z,7.10
2019-05-19T13:38:17.469Z,7.33
2019-05-19T13:40:49.549Z,6.53
2019-05-19T13:43:20.341Z,7.20
2019-05-19T13:45:51.170Z,6.90
2019-05-19T13:48:22.102Z,6.20
2019-05-19T13:50:53.004Z,13.47
2019-05-19T13:53:23.882Z,10.60
2019-05-19T13:55:54.798Z,7.77
2019-05-19T13:58:25.641Z,7.37
2019-05-19T14:00:56.554Z,6.50
2019-05-19T14:03:29.175Z,7.50
2019-05-19T14:06:00.205Z,7.13
2019-05-19T14:08:30.746Z,7.00
2019-05-19T14:11:01.839Z,7.30
2019-05-19T14:13:32.602Z,7.77
2019-05-19T14:16:03.175Z,6.77
2019-05-19T14:18:33.927Z,7.10
2019-05-19T14:21:04.536Z,7.90
2019-05-19T14:23:35.566Z,6.53
2019-05-19T14:26:06.195Z,6.83
2019-05-19T14:28:36.785Z,7.00
2019-05-19T14:31:07.225Z,7.43
2019-05-19T14:33:37.926Z,7.30
2019-05-19T14:36:08.395Z,6.60
2019-05-19T14:38:40.965Z,8.17
2019-05-19T14:41:11.610Z,7.17
2019-05-19T14:43:42.656Z,8.00
2019-05-19T14:46:13.380Z,7.53
2019-05-19T14:48:44.087Z,6.90
2019-05-19T14:51:16.287Z,7.67
2019-05-19T14:53:47.328Z,8.40
2019-05-19T14:56:17.917Z,11.60
2019-05-19T14:58:48.854Z,12.70
2019-05-19T15:01:21.938Z,8.43
2019-05-19T15:03:53.337Z,9.00
2019-05-19T15:06:25.026Z,12.13
2019-05-19T15:08:55.636Z,9.37
2019-05-19T15:11:26.382Z,8.60
2019-05-19T15:13:57.234Z,9.50
2019-05-19T15:16:28.110Z,12.00
2019-05-19T15:18:58.890Z,8.70
2019-05-19T15:21:31.875Z,9.20
2019-05-19T15:24:02.054Z,8.67
2019-05-19T15:26:32.786Z,9.07
2019-05-19T15:29:04.751Z,8.50
2019-05-19T15:31:35.308Z,8.73
2019-05-19T15:34:06.278Z,8.83
2019-05-19T15:36:37.013Z,8.43
2019-05-19T15:39:08.182Z,8.33
2019-05-19T15:41:38.903Z,9.00
2019-05-19T15:44:09.561Z,8.37
2019-05-19T15:46:40.568Z,8.60
2019-05-19T15:49:22.687Z,9.00
2019-05-19T15:52:01.662Z,8.73
2019-05-19T15:54:26.966Z,8.37
2019-05-19T15:56:57.758Z,8.80
2019-05-19T15:59:28.371Z,8.87
2019-05-19T16:01:58.980Z,8.30
2019-05-19T16:04:29.946Z,7.90
2019-05-19T16:07:00.768Z,8.30
2019-05-19T16:09:31.697Z,7.43
2019-05-19T16:12:02.476Z,7.27
2019-05-19T16:14:33.300Z,8.10
2019-05-19T16:17:04.155Z,10.10
2019-05-19T16:19:34.983Z,7.67
2019-05-19T16:22:05.661Z,8.50
2019-05-19T16:24:36.413Z,8.17
2019-05-19T16:27:09.152Z,8.33
2019-05-19T16:29:40.249Z,8.07
2019-05-19T16:32:10.931Z,7.17
2019-05-19T16:34:41.820Z,7.83
2019-05-19T16:37:12.483Z,7.60
2019-05-19T16:39:43.282Z,7.80
2019-05-19T16:42:13.810Z,7.60
2019-05-19T16:44:44.773Z,6.60
2019-05-19T16:47:15.733Z,7.20
2019-05-19T16:49:46.319Z,6.90
2019-05-19T16:52:16.924Z,6.80
2019-05-19T16:54:50.385Z,6.30
2019-05-19T16:57:21.245Z,6.77
2019-05-19T16:59:52.078Z,6.67
2019-05-19T17:02:22.911Z,6.33
2019-05-19T17:04:53.773Z,7.20
2019-05-19T17:07:24.565Z,7.40
2019-05-19T17:09:55.411Z,7.60
2019-05-19T17:12:26.286Z,7.03
2019-05-19T17:14:57.065Z,7.87
2019-05-19T17:17:27.935Z,6.90
2019-05-19T17:19:58.543Z,7.37
2019-05-19T17:22:29.280Z,7.70
2019-05-19T17:25:00.491Z,7.60
2019-05-19T17:27:31.630Z,7.53
2019-05-19T17:30:02.497Z,8.20
2019-05-19T17:32:34.845Z,8.20
2019-05-19T17:35:06.305Z,8.80
2019-05-19T17:37:36.955Z,8.47
2019-05-19T17:40:08.010Z,8.70
2019-05-19T17:42:40.130Z,8.40
2019-05-19T17:45:13.148Z,8.80
2019-05-19T17:47:43.940Z,9.73
2019-05-19T17:50:17.753Z,8.30
2019-05-19T17:52:48.555Z,8.63
2019-05-19T17:55:19.810Z,8.17
2019-05-19T17:57:50.592Z,8.73
2019-05-19T18:00:32.926Z,8.17
2019-05-19T18:03:03.784Z,8.57
2019-05-19T18:05:34.721Z,8.60
2019-05-19T18:08:05.578Z,8.83
2019-05-19T18:10:36.273Z,9.73
2019-05-19T18:13:07.200Z,9.20
2019-05-19T18:15:38.390Z,9.73
2019-05-19T18:18:09.013Z,9.53
2019-05-19T18:20:40.021Z,9.07
2019-05-19T18:23:10.914Z,9.83
2019-05-19T18:25:41.705Z,10.07
2019-05-19T18:28:12.553Z,9.93
2019-05-19T18:30:43.407Z,10.27
2019-05-19T18:33:14.222Z,11.40
2019-05-19T18:35:44.941Z,10.57
2019-05-19T18:38:16.617Z,10.60
2019-05-19T18:40:47.386Z,10.27
2019-05-19T18:43:17.990Z,10.77
2019-05-19T18:45:50.345Z,10.63
2019-05-19T18:48:23.325Z,11.30
2019-05-19T18:50:53.397Z,10.47
2019-05-19T18:53:24.255Z,10.60
2019-05-19T18:55:55.154Z,10.87
2019-05-19T18:58:26.658Z,10.93
2019-05-19T19:00:57.454Z,10.17
2019-05-19T19:03:28.457Z,10.40
2019-05-19T19:05:59.007Z,10.40
2019-05-19T19:08:29.980Z,10.63
2019-05-19T19:11:00.579Z,10.77
2019-05-19T19:13:31.306Z,10.73
2019-05-19T19:16:02.174Z,10.33
2019-05-19T19:18:33.022Z,9.70
2019-05-19T19:21:03.647Z,11.00
2019-05-19T19:23:34.432Z,11.60
2019-05-19T19:26:05.227Z,12.30
2019-05-19T19:28:36.033Z,12.60
2019-05-19T19:31:06.941Z,12.23
2019-05-19T19:33:37.685Z,12.33
2019-05-19T19:36:09.463Z,13.20
2019-05-19T19:38:40.294Z,12.87
2019-05-19T19:41:11.141Z,13.33
2019-05-19T19:43:41.958Z,14.17
2019-05-19T19:46:12.761Z,14.00
2019-05-19T19:48:43.746Z,15.00
2019-05-19T19:51:14.605Z,13.93
2019-05-19T19:53:45.425Z,15.27
2019-05-19T19:56:15.930Z,16.17
2019-05-19T19:58:46.689Z,15.80
2019-05-19T20:01:17.577Z,15.50
2019-05-19T20:03:48.178Z,16.73
2019-05-19T20:06:19.229Z,16.80
2019-05-19T20:08:49.939Z,15.93
2019-05-19T20:11:20.879Z,16.80
2019-05-19T20:13:52.006Z,16.37
2019-05-19T20:16:22.682Z,17.33
2019-05-19T20:18:53.725Z,17.33
2019-05-19T20:21:24.533Z,17.27
2019-05-19T20:23:55.153Z,17.83
2019-05-19T20:26:26.166Z,15.67
2019-05-19T20:28:56.862Z,16.47
2019-05-19T20:31:27.910Z,15.50
2019-05-19T20:33:59.046Z,17.30
2019-05-19T20:36:29.950Z,16.90
2019-05-19T20:39:00.477Z,17.17
2019-05-19T20:41:32.651Z,17.93
2019-05-19T20:44:04.138Z,17.30
2019-05-19T20:46:35.212Z,17.10
2019-05-19T20:49:05.887Z,17.83
2019-05-19T20:51:36.727Z,18.47
2019-05-19T20:54:07.338Z,18.47
2019-05-19T20:56:38.438Z,18.07
2019-05-19T20:59:09.223Z,19.30
2019-05-19T21:01:40.098Z,19.37
2019-05-19T21:04:10.705Z,19.30
2019-05-19T21:06:41.750Z,20.83
2019-05-19T21:09:12.589Z,19.63
2019-05-19T21:11:43.206Z,20.00
2019-05-19T21:14:14.006Z,21.30
2019-05-19T21:16:44.626Z,20.20
2019-05-19T21:19:16.926Z,20.63
2019-05-19T21:21:47.694Z,20.67
2019-05-19T21:24:18.537Z,21.40
2019-05-19T21:26:49.365Z,22.07
2019-05-19T21:29:20.196Z,23.07
2019-05-19T21:31:50.850Z,22.47
2019-05-19T21:34:21.568Z,23.80
2019-05-19T21:36:54.085Z,23.20
2019-05-19T21:39:25.101Z,23.30
2019-05-19T21:41:55.922Z,22.97
2019-05-19T21:44:26.766Z,25.37
2019-05-19T21:46:57.932Z,23.67
2019-05-19T21:49:28.621Z,24.10
2019-05-19T21:51:59.281Z,24.10
2019-05-19T21:54:30.114Z,23.57
2019-05-19T21:57:02.611Z,24.63
2019-05-19T21:59:33.089Z,23.80
2019-05-19T22:02:04.805Z,24.77
2019-05-19T22:04:36.299Z,22.53
2019-05-19T22:07:14.086Z,24.30
2019-05-19T22:09:44.958Z,24.13
2019-05-19T22:12:15.612Z,26.57
2019-05-19T22:14:46.325Z,25.33
2019-05-19T22:17:17.212Z,25.50
2019-05-19T22:19:48.012Z,25.37
2019-05-19T22:22:18.893Z,24.43
2019-05-19T22:24:49.446Z,26.33
2019-05-19T22:27:20.205Z,25.73
2019-05-19T22:29:50.830Z,28.83
2019-05-19T22:32:22.297Z,25.60
2019-05-19T22:34:53.019Z,27.23
2019-05-19T22:37:23.885Z,30.23
2019-05-19T22:39:54.800Z,25.80
2019-05-19T22:42:25.564Z,24.23
2019-05-19T22:44:56.679Z,25.00
2019-05-19T22:47:27.341Z,24.43
2019-05-19T22:49:58.362Z,26.40
2019-05-19T22:52:30.126Z,25.50
2019-05-19T22:55:00.970Z,25.13
2019-05-19T22:57:31.598Z,25.77
2019-05-19T23:00:02.638Z,24.63
2019-05-19T23:02:35.029Z,24.53
2019-05-19T23:05:06.321Z,25.43
2019-05-19T23:07:37.358Z,23.23
2019-05-19T23:10:08.730Z,23.23
2019-05-19T23:12:39.381Z,22.50
2019-05-19T23:15:10.601Z,22.00
2019-05-19T23:17:41.630Z,21.90
2019-05-19T23:20:12.884Z,21.90
2019-05-19T23:22:43.568Z,21.13
2019-05-19T23:25:14.495Z,19.10
2019-05-19T23:27:45.017Z,19.43
2019-05-19T23:30:16.161Z,19.10
2019-05-19T23:32:47.032Z,20.17
2019-05-19T23:35:18.045Z,20.67
2019-05-19T23:37:48.701Z,21.23
2019-05-19T23:40:19.715Z,20.73
2019-05-19T23:42:50.581Z,20.50
2019-05-19T23:45:21.694Z,19.97
2019-05-19T23:47:52.353Z,19.27
2019-05-19T23:50:22.842Z,20.43
2019-05-19T23:52:53.602Z,19.47
2019-05-19T23:55:24.213Z,21.00
2019-05-19T23:57:55.014Z,20.20
